Aéroport int. de Victoria, Colombie-Britannique

Conditions des dernières 24 heures

Date / Heure
(HNP)
Conditions Temp
(°F)
Humidité
(%)
Point de rosée
(°F)
Vent
(mph)
Pression (pouces) Visibilité
(miles)
31 janvier 2015
12:00 Généralement nuageux 45 92 43 SO 5 30.2 10
11:00 Brume 41 99 41 NNO 5 30.3 2
10:00 Brouillard 40 100 40 O 7 30.3 0.5
9:00 Brouillard 40 100 40 OSO 6 30.3 0.5
8:00 Brume 39 100 39 ONO 8 30.3 0.7
7:00 Brume 39 100 39 O 6 30.3 2
6:00 Brouillard 39 100 39 O 4 30.3 0.4
5:00 Brouillard 38 100 38 OSO 5 30.3 0.4
4:00 Brouillard 40 100 40 ONO 4 30.3 0.4
3:00 Brouillard 40 100 40 N 4 30.3 0.1
2:00 Brouillard 39 100 39 OSO 6 30.3 0.1
1:00 Brouillard 39 100 39 OSO 2 30.3 0.1
0:00 Brouillard 39 99 39 E 2 30.3 0.1
30 janvier 2015
23:00 Brouillard 40 99 40 S 3 30.3 0.2
22:00 Généralement dégagé 34   98 34 SO 3 30.3 10
21:00 Généralement dégagé 37 97 36 N 2 30.3 30
20:00 Généralement dégagé 38 96 37 ONO 2 30.3 30
19:00 Généralement dégagé 39 91 36 OSO 3 30.3 30
18:00 Généralement dégagé 42 89 39 OSO 3 30.3 30
17:00 Généralement nuageux 47 81 41 E 3 30.3 30
16:00 Généralement nuageux 47 79 41 E 4 30.3 30
15:00 Généralement nuageux 49   73 41 NNE 2 30.3 30
14:00 Généralement nuageux 48 70 38 ENE 5 30.3 30
13:00 Partiellement nuageux 48 73 39 E 5 30.3 30
12:00 Généralement ensoleillé 46 80 41 NO 3 30.3 30
N.D. non disponible
↑ température la plus haute
↓ température la plus basse

Si vous désirez plus de données historiques sur les conditions météo, s.v.p. visitez Données climatologiques en ligne.

Ce que nous faisons

Date de modification :